createdAt,value
2019-05-19T00:04:05.655Z,97892.17
2019-05-19T00:09:11.496Z,97892.27
2019-05-19T00:14:17.363Z,97900.15
2019-05-19T00:19:26.697Z,97898.05
2019-05-19T00:24:30.472Z,97892.63
2019-05-19T00:29:36.226Z,97896.48
2019-05-19T00:34:41.783Z,97891.70
2019-05-19T00:39:47.437Z,97887.70
2019-05-19T00:44:55.820Z,97889.00
2019-05-19T00:50:01.495Z,97890.16
2019-05-19T00:55:07.692Z,97894.06
2019-05-19T01:00:14.133Z,97891.20
2019-05-19T01:05:20.769Z,97888.40
2019-05-19T01:10:27.017Z,97888.14
2019-05-19T01:15:34.186Z,97888.16
2019-05-19T01:20:39.930Z,97881.31
2019-05-19T01:25:45.921Z,97883.56
2019-05-19T01:30:51.791Z,97883.91
2019-05-19T01:35:57.431Z,97858.47
2019-05-19T01:41:02.996Z,97879.67
2019-05-19T01:46:09.369Z,97875.59
2019-05-19T01:51:15.039Z,97877.38
2019-05-19T01:56:20.538Z,97868.67
2019-05-19T02:01:26.858Z,97864.54
2019-05-19T02:06:32.404Z,97852.92
2019-05-19T02:11:38.177Z,97849.09
2019-05-19T02:16:44.936Z,97833.72
2019-05-19T02:21:53.271Z,97845.78
2019-05-19T02:26:58.993Z,97840.97
2019-05-19T02:32:04.937Z,97845.02
2019-05-19T02:37:10.675Z,97849.73
2019-05-19T02:42:19.677Z,97845.69
2019-05-19T02:47:27.150Z,97851.72
2019-05-19T02:52:34.064Z,97850.63
2019-05-19T02:57:41.338Z,97855.48
2019-05-19T03:02:47.060Z,97850.50
2019-05-19T03:07:52.443Z,97844.00
2019-05-19T03:12:58.156Z,97844.00
2019-05-19T03:18:03.979Z,97843.66
2019-05-19T03:23:09.801Z,97837.89
2019-05-19T03:28:15.528Z,97845.83
2019-05-19T03:33:24.575Z,97853.25
2019-05-19T03:38:30.320Z,97859.95
2019-05-19T03:43:35.920Z,97857.05
2019-05-19T03:48:42.287Z,97852.80
2019-05-19T03:53:48.117Z,97854.15
2019-05-19T03:58:53.686Z,97843.55
2019-05-19T04:03:59.795Z,97848.20
2019-05-19T04:09:07.067Z,97850.13
2019-05-19T04:14:13.250Z,97852.52
2019-05-19T04:19:18.904Z,97858.65
2019-05-19T04:24:24.606Z,97859.39
2019-05-19T04:29:30.186Z,97866.00
2019-05-19T04:34:36.041Z,97868.22
2019-05-19T04:39:41.572Z,97859.35
2019-05-19T04:44:47.312Z,97855.48
2019-05-19T04:49:53.177Z,97859.48
2019-05-19T04:54:58.999Z,97854.44
2019-05-19T05:00:04.628Z,97845.86
2019-05-19T05:05:12.242Z,97852.95
2019-05-19T05:10:17.932Z,97841.62
2019-05-19T05:15:23.924Z,97840.48
2019-05-19T05:20:31.273Z,97842.50
2019-05-19T05:25:37.344Z,97837.72
2019-05-19T05:30:43.957Z,97827.15
2019-05-19T05:35:55.612Z,97824.28
2019-05-19T05:41:04.343Z,97825.34
2019-05-19T05:58:14.546Z,97824.96
2019-05-19T06:04:24.859Z,97820.68
2019-05-19T06:10:42.702Z,97823.85
2019-05-19T06:16:36.760Z,97826.60
2019-05-19T06:22:57.282Z,97822.36
2019-05-19T06:48:14.846Z,97830.11
2019-05-19T07:01:18.011Z,97829.88
2019-05-19T07:19:41.878Z,97807.84
2019-05-19T07:49:11.348Z,97800.52
2019-05-19T08:01:10.006Z,97803.88
2019-05-19T09:01:19.118Z,97760.55
2019-05-19T09:12:51.737Z,97754.76
2019-05-19T09:17:57.200Z,97749.53
2019-05-19T09:28:34.374Z,97736.03
2019-05-19T09:33:46.474Z,97742.51
2019-05-19T09:38:54.316Z,97736.60
2019-05-19T09:44:04.769Z,97735.17
2019-05-19T09:49:29.366Z,97727.98
2019-05-19T09:54:45.317Z,97726.51
2019-05-19T09:59:46.226Z,97725.75
2019-05-19T10:04:53.800Z,97711.62
2019-05-19T10:10:06.074Z,97721.53
2019-05-19T10:15:15.051Z,97709.50
2019-05-19T10:25:47.363Z,97707.61
2019-05-19T10:30:55.518Z,97700.61
2019-05-19T10:41:40.823Z,97696.69
2019-05-19T10:46:51.058Z,97696.83
2019-05-19T10:51:58.343Z,97688.61
2019-05-19T10:57:07.228Z,97693.83
2019-05-19T11:02:21.553Z,97690.17
2019-05-19T11:07:36.307Z,97686.45
2019-05-19T11:12:54.484Z,97686.41
2019-05-19T11:18:07.429Z,97683.86
2019-05-19T11:23:35.309Z,97688.92
2019-05-19T11:28:44.336Z,97690.09
2019-05-19T11:39:43.466Z,97669.73
2019-05-19T11:44:55.187Z,97672.77
2019-05-19T11:50:23.382Z,97675.28
2019-05-19T11:55:32.139Z,97664.83
2019-05-19T12:00:41.616Z,97671.57
2019-05-19T12:05:53.338Z,97657.95
2019-05-19T12:11:02.915Z,97665.83
2019-05-19T12:27:33.692Z,97667.78
2019-05-19T12:32:45.808Z,97679.94
2019-05-19T12:37:58.216Z,97669.98
2019-05-19T12:43:06.172Z,97663.64
2019-05-19T12:48:13.938Z,97656.49
2019-05-19T12:53:22.460Z,97664.16
2019-05-19T12:58:30.809Z,97655.91
2019-05-19T13:03:44.264Z,97658.63
2019-05-19T13:08:54.389Z,97656.92
2019-05-19T13:19:59.875Z,97646.63
2019-05-19T13:25:27.097Z,97636.34
2019-05-19T13:30:43.522Z,97637.78
2019-05-19T13:35:49.848Z,97625.98
2019-05-19T13:40:57.047Z,97626.67
2019-05-19T13:46:04.827Z,97628.84
2019-05-19T13:51:15.539Z,97627.91
2019-05-19T13:56:27.211Z,97633.25
2019-05-19T14:01:32.894Z,97631.12
2019-05-19T14:06:42.421Z,97619.59
2019-05-19T14:11:59.930Z,97611.97
2019-05-19T14:17:15.295Z,97612.02
2019-05-19T14:22:25.441Z,97608.61
2019-05-19T14:27:33.225Z,97598.70
2019-05-19T14:32:42.025Z,97592.49
2019-05-19T14:37:49.870Z,97596.02
2019-05-19T14:48:22.057Z,97584.20
2019-05-19T14:53:33.866Z,97588.11
2019-05-19T14:58:40.359Z,97581.38
2019-05-19T15:03:48.993Z,97576.78
2019-05-19T15:14:33.460Z,97571.63
2019-05-19T15:19:39.290Z,97569.92
2019-05-19T15:30:27.021Z,97544.68
2019-05-19T15:35:32.707Z,97544.44
2019-05-19T15:40:42.458Z,97540.17
2019-05-19T15:45:50.830Z,97540.72
2019-05-19T15:51:04.693Z,97533.86
2019-05-19T15:56:19.773Z,97527.98
2019-05-19T16:07:02.012Z,97529.81
2019-05-19T16:12:10.831Z,97536.86
2019-05-19T16:17:24.384Z,97531.88
2019-05-19T16:22:32.266Z,97532.49
2019-05-19T16:27:39.477Z,97525.63
2019-05-19T16:32:47.452Z,97523.31
2019-05-19T16:37:53.231Z,97534.61
2019-05-19T16:43:02.204Z,97539.25
2019-05-19T16:48:19.651Z,97527.02
2019-05-19T16:53:27.381Z,97529.74
2019-05-19T16:58:44.900Z,97529.13
2019-05-19T17:04:02.655Z,97538.25
2019-05-19T17:14:38.249Z,97533.41
2019-05-19T17:19:46.931Z,97533.30
2019-05-19T17:24:52.856Z,97536.47
2019-05-19T17:29:59.641Z,97530.53
2019-05-19T17:35:08.064Z,97531.37
2019-05-19T17:40:15.311Z,97529.31
2019-05-19T17:45:24.896Z,97530.40
2019-05-19T17:50:52.811Z,97536.67
2019-05-19T17:56:00.471Z,97531.95
2019-05-19T18:01:10.079Z,97537.25
2019-05-19T18:06:21.760Z,97538.85
2019-05-19T18:11:28.687Z,97529.81
2019-05-19T18:21:46.143Z,97537.80
2019-05-19T18:26:53.904Z,97539.58
2019-05-19T18:31:59.829Z,97537.44
2019-05-19T18:37:05.969Z,97544.30
2019-05-19T18:42:13.796Z,97547.37
2019-05-19T18:47:19.293Z,97551.95
2019-05-19T18:52:24.717Z,97554.75
2019-05-19T18:57:32.471Z,97554.78
2019-05-19T19:02:38.132Z,97553.45
2019-05-19T19:07:54.594Z,97551.42
2019-05-19T19:12:59.875Z,97558.98
2019-05-19T19:18:06.117Z,97567.86
2019-05-19T19:23:11.477Z,97565.75
2019-05-19T19:28:16.753Z,97557.84
2019-05-19T19:33:22.141Z,97560.91
2019-05-19T19:38:27.497Z,97568.41
2019-05-19T19:43:32.795Z,97563.63
2019-05-19T19:48:38.268Z,97573.03
2019-05-19T19:53:43.519Z,97567.78
2019-05-19T19:58:49.387Z,97567.47
2019-05-19T20:03:55.064Z,97564.88
2019-05-19T20:09:01.511Z,97562.53
2019-05-19T20:14:19.527Z,97563.51
2019-05-19T20:19:25.075Z,97562.47
2019-05-19T20:24:30.344Z,97555.97
2019-05-19T20:29:35.945Z,97545.91
2019-05-19T20:34:41.290Z,97547.98
2019-05-19T20:39:46.679Z,97542.30
2019-05-19T20:44:53.339Z,97542.94
2019-05-19T20:49:58.643Z,97535.47
2019-05-19T20:55:03.885Z,97535.97
2019-05-19T21:00:09.761Z,97535.05
2019-05-19T21:05:16.728Z,97537.53
2019-05-19T21:10:22.003Z,97542.78
2019-05-19T21:15:27.321Z,97536.34
2019-05-19T21:20:33.759Z,97542.60
2019-05-19T21:25:38.976Z,97535.33
2019-05-19T21:30:44.666Z,97535.52
2019-05-19T21:35:50.909Z,97535.73
2019-05-19T21:40:56.228Z,97522.95
2019-05-19T21:46:01.478Z,97515.09
2019-05-19T21:51:06.850Z,97524.67
2019-05-19T21:56:12.057Z,97524.47
2019-05-19T22:01:23.170Z,97532.19
2019-05-19T22:06:27.178Z,97539.13
2019-05-19T22:11:32.453Z,97544.55
2019-05-19T22:16:37.642Z,97548.33
2019-05-19T22:21:43.400Z,97538.09
2019-05-19T22:26:48.756Z,97526.20
2019-05-19T22:31:54.423Z,97531.22
2019-05-19T22:37:00.675Z,97520.89
2019-05-19T22:42:06.069Z,97534.27
2019-05-19T22:47:11.555Z,97544.05
2019-05-19T22:52:16.924Z,97553.10
2019-05-19T22:57:22.127Z,97552.09
2019-05-19T23:02:27.387Z,97548.27
2019-05-19T23:07:32.543Z,97551.16
2019-05-19T23:12:37.852Z,97552.20
2019-05-19T23:17:43.385Z,97555.19
2019-05-19T23:22:49.273Z,97554.25
2019-05-19T23:27:54.500Z,97567.35
2019-05-19T23:32:59.740Z,97571.38
2019-05-19T23:38:04.932Z,97568.36
2019-05-19T23:43:10.149Z,97557.91
2019-05-19T23:48:16.932Z,97551.27
2019-05-19T23:53:22.321Z,97551.98
2019-05-19T23:58:27.572Z,97549.76
